Decoded Metar for VVDN (DANANG in VIET NAM) (IATA:DAD) | Meteo·Mobile Aviation Weather
aviador You're here:

VVDN Decoded Metar

DANANG in VIET NAM
Report Time2019-10-22 14:30:00
UTC Time2019-10-22 14:48:46
Flight Rules vfr VFR
Wind240° at 03 kt
W.Decomp.*RWY 17: 1.0 kt HW 2.8 kt RCW
Visibility8000 m
Phenomena:N/A
Clouds:Scattered 013 Hf
Expected CloudBase > 2,000 ft AGL from Temp-Dew spread
CeilingNone
Temp28°C (ISA +13)
Dew Point23°C (74% RH)
Heat Index31.2°C
QNH1011 hPa
Density Alt1,962 ft
Elevation23 ft
Report Wrong Elevation
Raw Report
VVDN 221430Z 24003KT 8000 SCT013 28/23 Q1011 NOSIG=

Extra information for VVDN:More info

Metar Taf Metar & Taf Last 4 Metars F.Rules Stats Wind Profile Meteogram Temp Stats Airport Information Weather charts Add Link Nearby VenuesMetar ALERT Operation Metar Decoded Social comments